sensor_id;sensor_type;location;lat;lon;timestamp;temperature;humidity
16732;DHT22;8484;50.904;9.192;2023-02-04T00:00:10;5.70;99.90
16732;DHT22;8484;50.904;9.192;2023-02-04T00:02:39;5.70;99.90
16732;DHT22;8484;50.904;9.192;2023-02-04T00:05:07;5.80;99.90
16732;DHT22;8484;50.904;9.192;2023-02-04T00:07:34;5.60;99.90
16732;DHT22;8484;50.904;9.192;2023-02-04T00:10:02;5.60;99.90
16732;DHT22;8484;50.904;9.192;2023-02-04T00:12:29;5.60;99.90
16732;DHT22;8484;50.904;9.192;2023-02-04T00:14:55;5.60;99.90
16732;DHT22;8484;50.904;9.192;2023-02-04T00:17:22;5.60;99.90
16732;DHT22;8484;50.904;9.192;2023-02-04T00:19:50;5.60;99.90
16732;DHT22;8484;50.904;9.192;2023-02-04T00:22:17;5.60;99.90
16732;DHT22;8484;50.904;9.192;2023-02-04T00:24:44;5.60;99.90
16732;DHT22;8484;50.904;9.192;2023-02-04T00:27:14;5.50;99.90
16732;DHT22;8484;50.904;9.192;2023-02-04T00:29:41;5.50;99.90
16732;DHT22;8484;50.904;9.192;2023-02-04T00:32:08;5.50;99.90
16732;DHT22;8484;50.904;9.192;2023-02-04T00:34:35;5.50;99.90
16732;DHT22;8484;50.904;9.192;2023-02-04T00:37:03;5.50;99.90
16732;DHT22;8484;50.904;9.192;2023-02-04T00:39:29;5.60;99.90
16732;DHT22;8484;50.904;9.192;2023-02-04T00:41:56;5.50;99.90
16732;DHT22;8484;50.904;9.192;2023-02-04T00:44:23;5.50;99.90
16732;DHT22;8484;50.904;9.192;2023-02-04T00:46:50;5.40;99.90
16732;DHT22;8484;50.904;9.192;2023-02-04T00:49:17;5.50;99.90
16732;DHT22;8484;50.904;9.192;2023-02-04T00:51:43;5.40;99.90
16732;DHT22;8484;50.904;9.192;2023-02-04T00:54:12;5.30;99.90
16732;DHT22;8484;50.904;9.192;2023-02-04T00:56:40;5.30;99.90
16732;DHT22;8484;50.904;9.192;2023-02-04T00:59:08;5.20;99.90
16732;DHT22;8484;50.904;9.192;2023-02-04T01:01:35;5.10;99.90
16732;DHT22;8484;50.904;9.192;2023-02-04T01:04:02;5.10;99.90
16732;DHT22;8484;50.904;9.192;2023-02-04T01:06:29;5.10;99.90
16732;DHT22;8484;50.904;9.192;2023-02-04T01:08:57;5.10;99.90
16732;DHT22;8484;50.904;9.192;2023-02-04T01:11:26;5.10;99.90
16732;DHT22;8484;50.904;9.192;2023-02-04T01:13:53;5.10;99.90
16732;DHT22;8484;50.904;9.192;2023-02-04T01:16:20;5.10;99.90
16732;DHT22;8484;50.904;9.192;2023-02-04T01:18:47;5.10;99.90
16732;DHT22;8484;50.904;9.192;2023-02-04T01:21:14;5.20;99.90
16732;DHT22;8484;50.904;9.192;2023-02-04T01:23:41;5.20;99.90
16732;DHT22;8484;50.904;9.192;2023-02-04T01:26:07;5.20;99.90
16732;DHT22;8484;50.904;9.192;2023-02-04T01:28:36;5.20;99.90
16732;DHT22;8484;50.904;9.192;2023-02-04T01:31:03;5.30;99.90
16732;DHT22;8484;50.904;9.192;2023-02-04T01:33:29;5.30;99.90
16732;DHT22;8484;50.904;9.192;2023-02-04T01:35:57;5.30;99.90
16732;DHT22;8484;50.904;9.192;2023-02-04T01:38:23;5.30;99.90
16732;DHT22;8484;50.904;9.192;2023-02-04T01:40:50;5.40;99.90
16732;DHT22;8484;50.904;9.192;2023-02-04T01:43:17;5.40;99.90
16732;DHT22;8484;50.904;9.192;2023-02-04T01:45:48;5.40;99.90
16732;DHT22;8484;50.904;9.192;2023-02-04T01:48:17;5.40;99.90
16732;DHT22;8484;50.904;9.192;2023-02-04T01:50:46;5.50;99.90
16732;DHT22;8484;50.904;9.192;2023-02-04T01:53:14;5.50;99.90
16732;DHT22;8484;50.904;9.192;2023-02-04T01:55:41;5.40;99.90
16732;DHT22;8484;50.904;9.192;2023-02-04T01:58:09;5.40;99.90
16732;DHT22;8484;50.904;9.192;2023-02-04T02:00:38;5.40;99.90
16732;DHT22;8484;50.904;9.192;2023-02-04T02:03:07;5.50;99.90
16732;DHT22;8484;50.904;9.192;2023-02-04T02:05:37;5.50;99.90
16732;DHT22;8484;50.904;9.192;2023-02-04T02:08:06;5.50;99.90
16732;DHT22;8484;50.904;9.192;2023-02-04T02:10:34;5.50;99.90
16732;DHT22;8484;50.904;9.192;2023-02-04T02:13:02;5.50;99.90
16732;DHT22;8484;50.904;9.192;2023-02-04T02:15:29;5.60;99.90
16732;DHT22;8484;50.904;9.192;2023-02-04T02:17:56;5.60;99.90
16732;DHT22;8484;50.904;9.192;2023-02-04T02:20:26;5.70;99.90
16732;DHT22;8484;50.904;9.192;2023-02-04T02:23:00;5.70;99.90
16732;DHT22;8484;50.904;9.192;2023-02-04T02:25:29;5.70;99.90
16732;DHT22;8484;50.904;9.192;2023-02-04T02:27:56;5.50;99.90
16732;DHT22;8484;50.904;9.192;2023-02-04T02:30:24;5.40;99.90
16732;DHT22;8484;50.904;9.192;2023-02-04T02:32:53;5.40;99.90
16732;DHT22;8484;50.904;9.192;2023-02-04T02:35:20;5.30;99.90
16732;DHT22;8484;50.904;9.192;2023-02-04T02:37:47;5.30;99.90
16732;DHT22;8484;50.904;9.192;2023-02-04T02:40:14;5.20;99.90
16732;DHT22;8484;50.904;9.192;2023-02-04T02:42:43;5.00;99.90
16732;DHT22;8484;50.904;9.192;2023-02-04T02:45:14;4.90;99.90
16732;DHT22;8484;50.904;9.192;2023-02-04T02:47:43;4.70;99.90
16732;DHT22;8484;50.904;9.192;2023-02-04T02:50:12;4.70;99.90
16732;DHT22;8484;50.904;9.192;2023-02-04T02:52:41;4.70;99.90
16732;DHT22;8484;50.904;9.192;2023-02-04T02:55:13;4.70;99.90
16732;DHT22;8484;50.904;9.192;2023-02-04T02:57:42;4.70;99.90
16732;DHT22;8484;50.904;9.192;2023-02-04T03:00:13;4.80;99.90
16732;DHT22;8484;50.904;9.192;2023-02-04T03:02:40;4.80;99.90
16732;DHT22;8484;50.904;9.192;2023-02-04T03:05:09;4.80;99.90
16732;DHT22;8484;50.904;9.192;2023-02-04T03:07:36;4.80;99.90
16732;DHT22;8484;50.904;9.192;2023-02-04T03:10:03;4.80;99.90
16732;DHT22;8484;50.904;9.192;2023-02-04T03:12:30;4.90;99.90
16732;DHT22;8484;50.904;9.192;2023-02-04T03:14:58;4.90;99.90
16732;DHT22;8484;50.904;9.192;2023-02-04T03:17:25;4.90;99.90
16732;DHT22;8484;50.904;9.192;2023-02-04T03:19:51;4.90;99.90
16732;DHT22;8484;50.904;9.192;2023-02-04T03:22:18;5.00;99.90
16732;DHT22;8484;50.904;9.192;2023-02-04T03:24:45;5.00;99.90
16732;DHT22;8484;50.904;9.192;2023-02-04T03:27:13;5.00;99.90
16732;DHT22;8484;50.904;9.192;2023-02-04T03:29:42;5.00;99.90
16732;DHT22;8484;50.904;9.192;2023-02-04T03:32:11;5.10;99.90
16732;DHT22;8484;50.904;9.192;2023-02-04T03:34:38;5.10;99.90
16732;DHT22;8484;50.904;9.192;2023-02-04T03:37:04;5.10;99.90
16732;DHT22;8484;50.904;9.192;2023-02-04T03:39:31;5.10;99.90
16732;DHT22;8484;50.904;9.192;2023-02-04T03:41:58;5.10;99.90
16732;DHT22;8484;50.904;9.192;2023-02-04T03:44:25;5.00;99.90
16732;DHT22;8484;50.904;9.192;2023-02-04T03:46:52;4.90;99.90
16732;DHT22;8484;50.904;9.192;2023-02-04T03:49:21;5.00;99.90
16732;DHT22;8484;50.904;9.192;2023-02-04T03:51:48;4.90;99.90
16732;DHT22;8484;50.904;9.192;2023-02-04T03:54:15;5.00;99.90
16732;DHT22;8484;50.904;9.192;2023-02-04T03:56:42;5.10;99.90
16732;DHT22;8484;50.904;9.192;2023-02-04T03:59:09;5.10;99.90
16732;DHT22;8484;50.904;9.192;2023-02-04T04:01:36;5.00;99.90
16732;DHT22;8484;50.904;9.192;2023-02-04T04:04:02;5.00;99.90
16732;DHT22;8484;50.904;9.192;2023-02-04T04:06:30;5.00;99.90
16732;DHT22;8484;50.904;9.192;2023-02-04T04:08:57;4.90;99.90
16732;DHT22;8484;50.904;9.192;2023-02-04T04:11:24;4.90;99.90
16732;DHT22;8484;50.904;9.192;2023-02-04T04:13:51;5.00;99.90
16732;DHT22;8484;50.904;9.192;2023-02-04T04:16:18;5.00;99.90
16732;DHT22;8484;50.904;9.192;2023-02-04T04:18:46;5.10;99.90
16732;DHT22;8484;50.904;9.192;2023-02-04T04:21:13;5.10;99.90
16732;DHT22;8484;50.904;9.192;2023-02-04T04:23:41;5.10;99.90
16732;DHT22;8484;50.904;9.192;2023-02-04T04:26:08;5.10;99.90
16732;DHT22;8484;50.904;9.192;2023-02-04T04:28:35;5.10;99.90
16732;DHT22;8484;50.904;9.192;2023-02-04T04:31:02;5.10;99.90
16732;DHT22;8484;50.904;9.192;2023-02-04T04:33:29;5.20;99.90
16732;DHT22;8484;50.904;9.192;2023-02-04T04:35:56;5.10;99.90
16732;DHT22;8484;50.904;9.192;2023-02-04T04:38:23;5.20;99.90
16732;DHT22;8484;50.904;9.192;2023-02-04T04:40:52;5.20;99.90
16732;DHT22;8484;50.904;9.192;2023-02-04T04:43:19;5.20;99.90
16732;DHT22;8484;50.904;9.192;2023-02-04T04:45:46;5.10;99.90
16732;DHT22;8484;50.904;9.192;2023-02-04T04:48:12;5.20;99.90
16732;DHT22;8484;50.904;9.192;2023-02-04T04:50:39;5.10;99.90
16732;DHT22;8484;50.904;9.192;2023-02-04T04:53:06;5.10;99.90
16732;DHT22;8484;50.904;9.192;2023-02-04T04:55:35;5.10;99.90
16732;DHT22;8484;50.904;9.192;2023-02-04T04:58:04;5.00;99.90
16732;DHT22;8484;50.904;9.192;2023-02-04T05:00:31;5.00;99.90
16732;DHT22;8484;50.904;9.192;2023-02-04T05:02:58;5.00;99.90
16732;DHT22;8484;50.904;9.192;2023-02-04T05:05:25;5.00;99.90
16732;DHT22;8484;50.904;9.192;2023-02-04T05:07:52;5.00;99.90
16732;DHT22;8484;50.904;9.192;2023-02-04T05:10:19;5.10;99.90
16732;DHT22;8484;50.904;9.192;2023-02-04T05:12:46;5.10;99.90
16732;DHT22;8484;50.904;9.192;2023-02-04T05:15:15;5.00;99.90
16732;DHT22;8484;50.904;9.192;2023-02-04T05:17:42;4.90;99.90
16732;DHT22;8484;50.904;9.192;2023-02-04T05:20:09;4.90;99.90
16732;DHT22;8484;50.904;9.192;2023-02-04T05:22:36;4.80;99.90
16732;DHT22;8484;50.904;9.192;2023-02-04T05:25:04;4.80;99.90
16732;DHT22;8484;50.904;9.192;2023-02-04T05:27:31;4.70;99.90
16732;DHT22;8484;50.904;9.192;2023-02-04T05:29:58;4.60;99.90
16732;DHT22;8484;50.904;9.192;2023-02-04T05:32:26;4.60;99.90
16732;DHT22;8484;50.904;9.192;2023-02-04T05:34:53;4.60;99.90
16732;DHT22;8484;50.904;9.192;2023-02-04T05:37:20;4.60;99.90
16732;DHT22;8484;50.904;9.192;2023-02-04T05:39:46;4.70;99.90
16732;DHT22;8484;50.904;9.192;2023-02-04T05:42:13;4.70;99.90
16732;DHT22;8484;50.904;9.192;2023-02-04T05:44:40;4.60;99.90
16732;DHT22;8484;50.904;9.192;2023-02-04T05:47:07;4.60;99.90
16732;DHT22;8484;50.904;9.192;2023-02-04T05:49:35;4.60;99.90
16732;DHT22;8484;50.904;9.192;2023-02-04T05:52:03;4.50;99.90
16732;DHT22;8484;50.904;9.192;2023-02-04T05:54:30;4.50;99.90
16732;DHT22;8484;50.904;9.192;2023-02-04T05:56:56;4.40;99.90
16732;DHT22;8484;50.904;9.192;2023-02-04T05:59:23;4.50;99.90
16732;DHT22;8484;50.904;9.192;2023-02-04T06:01:50;4.50;99.90
16732;DHT22;8484;50.904;9.192;2023-02-04T06:04:17;4.40;99.90
16732;DHT22;8484;50.904;9.192;2023-02-04T06:06:45;4.30;99.90
16732;DHT22;8484;50.904;9.192;2023-02-04T06:09:12;4.30;99.90
16732;DHT22;8484;50.904;9.192;2023-02-04T06:11:39;4.30;99.90
16732;DHT22;8484;50.904;9.192;2023-02-04T06:14:06;4.30;99.90
16732;DHT22;8484;50.904;9.192;2023-02-04T06:16:33;4.40;99.90
16732;DHT22;8484;50.904;9.192;2023-02-04T06:19:00;4.40;99.90
16732;DHT22;8484;50.904;9.192;2023-02-04T06:21:27;4.30;99.90
16732;DHT22;8484;50.904;9.192;2023-02-04T06:23:55;4.30;99.90
16732;DHT22;8484;50.904;9.192;2023-02-04T06:26:22;4.50;99.90
16732;DHT22;8484;50.904;9.192;2023-02-04T06:28:49;4.50;99.90
16732;DHT22;8484;50.904;9.192;2023-02-04T06:31:15;4.40;99.90
16732;DHT22;8484;50.904;9.192;2023-02-04T06:33:43;4.40;99.90
16732;DHT22;8484;50.904;9.192;2023-02-04T06:36:11;4.40;99.90
16732;DHT22;8484;50.904;9.192;2023-02-04T06:38:38;4.30;99.90
16732;DHT22;8484;50.904;9.192;2023-02-04T06:41:06;4.40;99.90
16732;DHT22;8484;50.904;9.192;2023-02-04T06:43:33;4.30;99.90
16732;DHT22;8484;50.904;9.192;2023-02-04T06:46:00;4.20;99.90
16732;DHT22;8484;50.904;9.192;2023-02-04T06:48:26;4.10;99.90
16732;DHT22;8484;50.904;9.192;2023-02-04T06:50:53;4.20;99.90
16732;DHT22;8484;50.904;9.192;2023-02-04T06:53:20;4.10;99.90
16732;DHT22;8484;50.904;9.192;2023-02-04T06:55:47;4.10;99.90
16732;DHT22;8484;50.904;9.192;2023-02-04T06:58:15;4.20;99.90
16732;DHT22;8484;50.904;9.192;2023-02-04T07:00:42;4.10;99.90
16732;DHT22;8484;50.904;9.192;2023-02-04T07:03:09;4.00;99.90
16732;DHT22;8484;50.904;9.192;2023-02-04T07:05:36;4.00;99.90
16732;DHT22;8484;50.904;9.192;2023-02-04T07:08:03;4.10;99.90
16732;DHT22;8484;50.904;9.192;2023-02-04T07:10:30;4.10;99.90
16732;DHT22;8484;50.904;9.192;2023-02-04T07:13:08;4.10;99.90
16732;DHT22;8484;50.904;9.192;2023-02-04T07:15:37;4.20;99.90
16732;DHT22;8484;50.904;9.192;2023-02-04T07:18:03;4.20;99.90
16732;DHT22;8484;50.904;9.192;2023-02-04T07:20:30;4.20;99.90
16732;DHT22;8484;50.904;9.192;2023-02-04T07:22:57;4.20;99.90
16732;DHT22;8484;50.904;9.192;2023-02-04T07:25:24;4.30;99.90
16732;DHT22;8484;50.904;9.192;2023-02-04T07:27:51;4.40;99.90
16732;DHT22;8484;50.904;9.192;2023-02-04T07:30:18;4.50;99.90
16732;DHT22;8484;50.904;9.192;2023-02-04T07:32:46;4.60;99.90
16732;DHT22;8484;50.904;9.192;2023-02-04T07:35:13;4.50;99.90
16732;DHT22;8484;50.904;9.192;2023-02-04T07:37:40;4.50;99.90
16732;DHT22;8484;50.904;9.192;2023-02-04T07:40:08;4.50;99.90
16732;DHT22;8484;50.904;9.192;2023-02-04T07:42:35;4.50;99.90
16732;DHT22;8484;50.904;9.192;2023-02-04T07:45:03;4.50;99.90
16732;DHT22;8484;50.904;9.192;2023-02-04T07:47:30;4.50;99.90
16732;DHT22;8484;50.904;9.192;2023-02-04T07:49:58;4.50;99.90
16732;DHT22;8484;50.904;9.192;2023-02-04T07:52:25;4.60;99.90
16732;DHT22;8484;50.904;9.192;2023-02-04T07:54:51;4.60;99.90
16732;DHT22;8484;50.904;9.192;2023-02-04T07:57:19;4.50;99.90
16732;DHT22;8484;50.904;9.192;2023-02-04T07:59:45;4.50;99.90
16732;DHT22;8484;50.904;9.192;2023-02-04T08:02:12;4.40;99.90
16732;DHT22;8484;50.904;9.192;2023-02-04T08:04:39;4.40;99.90
16732;DHT22;8484;50.904;9.192;2023-02-04T08:07:07;4.40;99.90
16732;DHT22;8484;50.904;9.192;2023-02-04T08:09:34;4.40;99.90
16732;DHT22;8484;50.904;9.192;2023-02-04T08:12:01;4.40;99.90
16732;DHT22;8484;50.904;9.192;2023-02-04T08:14:28;4.40;99.90
16732;DHT22;8484;50.904;9.192;2023-02-04T08:16:55;4.40;99.90
16732;DHT22;8484;50.904;9.192;2023-02-04T08:19:21;4.40;99.90
16732;DHT22;8484;50.904;9.192;2023-02-04T08:21:48;4.50;99.90
16732;DHT22;8484;50.904;9.192;2023-02-04T08:24:16;4.40;99.90
16732;DHT22;8484;50.904;9.192;2023-02-04T08:26:43;4.40;99.90
16732;DHT22;8484;50.904;9.192;2023-02-04T08:29:10;4.40;99.90
16732;DHT22;8484;50.904;9.192;2023-02-04T08:31:37;4.50;99.90
16732;DHT22;8484;50.904;9.192;2023-02-04T08:34:04;4.30;99.90
16732;DHT22;8484;50.904;9.192;2023-02-04T08:36:32;4.40;99.90
16732;DHT22;8484;50.904;9.192;2023-02-04T08:38:58;4.40;99.90
16732;DHT22;8484;50.904;9.192;2023-02-04T08:41:27;4.40;99.90
16732;DHT22;8484;50.904;9.192;2023-02-04T08:43:53;4.40;99.90
16732;DHT22;8484;50.904;9.192;2023-02-04T08:46:20;4.40;99.90
16732;DHT22;8484;50.904;9.192;2023-02-04T08:48:47;4.40;99.90
16732;DHT22;8484;50.904;9.192;2023-02-04T08:51:14;4.30;99.90
16732;DHT22;8484;50.904;9.192;2023-02-04T08:53:41;4.40;99.90
16732;DHT22;8484;50.904;9.192;2023-02-04T08:56:08;4.40;99.90
16732;DHT22;8484;50.904;9.192;2023-02-04T08:58:36;4.40;99.90
16732;DHT22;8484;50.904;9.192;2023-02-04T09:01:04;4.50;99.90
16732;DHT22;8484;50.904;9.192;2023-02-04T09:03:31;4.60;99.90
16732;DHT22;8484;50.904;9.192;2023-02-04T09:05:58;4.60;99.90
16732;DHT22;8484;50.904;9.192;2023-02-04T09:08:25;4.60;99.90
16732;DHT22;8484;50.904;9.192;2023-02-04T09:10:52;4.60;99.90
16732;DHT22;8484;50.904;9.192;2023-02-04T09:13:19;4.50;99.90
16732;DHT22;8484;50.904;9.192;2023-02-04T09:15:47;4.60;99.90
16732;DHT22;8484;50.904;9.192;2023-02-04T09:18:14;4.60;99.90
16732;DHT22;8484;50.904;9.192;2023-02-04T09:20:42;4.60;99.90
16732;DHT22;8484;50.904;9.192;2023-02-04T09:23:09;4.90;99.90
16732;DHT22;8484;50.904;9.192;2023-02-04T09:25:37;5.10;99.90
16732;DHT22;8484;50.904;9.192;2023-02-04T09:28:04;5.10;99.90
16732;DHT22;8484;50.904;9.192;2023-02-04T09:30:31;5.20;99.90
16732;DHT22;8484;50.904;9.192;2023-02-04T09:32:59;5.40;99.90
16732;DHT22;8484;50.904;9.192;2023-02-04T09:35:26;5.40;99.90
16732;DHT22;8484;50.904;9.192;2023-02-04T09:37:54;5.30;99.90
16732;DHT22;8484;50.904;9.192;2023-02-04T09:40:21;5.30;99.90
16732;DHT22;8484;50.904;9.192;2023-02-04T09:42:49;5.50;99.90
16732;DHT22;8484;50.904;9.192;2023-02-04T09:45:20;5.50;99.90
16732;DHT22;8484;50.904;9.192;2023-02-04T09:47:48;5.60;99.90
16732;DHT22;8484;50.904;9.192;2023-02-04T09:50:19;5.80;99.90
16732;DHT22;8484;50.904;9.192;2023-02-04T09:52:48;5.90;99.90
16732;DHT22;8484;50.904;9.192;2023-02-04T09:55:17;5.90;99.90
16732;DHT22;8484;50.904;9.192;2023-02-04T09:57:45;6.00;99.90
16732;DHT22;8484;50.904;9.192;2023-02-04T10:00:15;5.80;99.90
16732;DHT22;8484;50.904;9.192;2023-02-04T10:02:43;5.80;99.90
16732;DHT22;8484;50.904;9.192;2023-02-04T10:05:12;5.70;99.90
16732;DHT22;8484;50.904;9.192;2023-02-04T10:07:42;5.70;99.90
16732;DHT22;8484;50.904;9.192;2023-02-04T10:10:15;5.50;99.90
16732;DHT22;8484;50.904;9.192;2023-02-04T10:12:43;5.70;99.90
16732;DHT22;8484;50.904;9.192;2023-02-04T10:15:12;5.70;99.90
16732;DHT22;8484;50.904;9.192;2023-02-04T10:17:40;5.80;99.90
16732;DHT22;8484;50.904;9.192;2023-02-04T10:20:12;5.80;99.90
16732;DHT22;8484;50.904;9.192;2023-02-04T10:22:40;6.00;99.90
16732;DHT22;8484;50.904;9.192;2023-02-04T10:25:12;5.80;99.90
16732;DHT22;8484;50.904;9.192;2023-02-04T10:27:49;5.50;99.90
16732;DHT22;8484;50.904;9.192;2023-02-04T10:30:19;5.40;99.90
16732;DHT22;8484;50.904;9.192;2023-02-04T10:32:47;5.50;99.90
16732;DHT22;8484;50.904;9.192;2023-02-04T10:35:16;5.50;99.90
16732;DHT22;8484;50.904;9.192;2023-02-04T10:37:44;5.80;99.90
16732;DHT22;8484;50.904;9.192;2023-02-04T10:40:26;6.00;99.90
16732;DHT22;8484;50.904;9.192;2023-02-04T10:42:54;6.10;99.90
16732;DHT22;8484;50.904;9.192;2023-02-04T10:45:22;6.00;99.90
16732;DHT22;8484;50.904;9.192;2023-02-04T10:47:50;5.90;99.90
16732;DHT22;8484;50.904;9.192;2023-02-04T10:50:18;5.90;99.90
16732;DHT22;8484;50.904;9.192;2023-02-04T10:52:50;6.10;99.90
16732;DHT22;8484;50.904;9.192;2023-02-04T10:55:19;6.00;99.90
16732;DHT22;8484;50.904;9.192;2023-02-04T10:57:47;5.90;99.90
16732;DHT22;8484;50.904;9.192;2023-02-04T11:00:17;6.20;99.90
16732;DHT22;8484;50.904;9.192;2023-02-04T11:02:48;6.30;99.90
16732;DHT22;8484;50.904;9.192;2023-02-04T11:05:18;6.00;99.90
16732;DHT22;8484;50.904;9.192;2023-02-04T11:07:47;5.90;99.90
16732;DHT22;8484;50.904;9.192;2023-02-04T11:10:16;6.10;99.90
16732;DHT22;8484;50.904;9.192;2023-02-04T11:12:46;6.00;99.90
16732;DHT22;8484;50.904;9.192;2023-02-04T11:15:38;5.80;99.90
16732;DHT22;8484;50.904;9.192;2023-02-04T11:18:07;5.70;99.90
16732;DHT22;8484;50.904;9.192;2023-02-04T11:20:35;5.80;99.90
16732;DHT22;8484;50.904;9.192;2023-02-04T11:23:28;5.70;99.90
16732;DHT22;8484;50.904;9.192;2023-02-04T11:26:08;6.00;99.90
16732;DHT22;8484;50.904;9.192;2023-02-04T11:29:06;6.50;99.90
16732;DHT22;8484;50.904;9.192;2023-02-04T11:31:56;7.00;99.90
16732;DHT22;8484;50.904;9.192;2023-02-04T11:34:26;6.90;99.90
16732;DHT22;8484;50.904;9.192;2023-02-04T11:37:11;7.00;99.90
16732;DHT22;8484;50.904;9.192;2023-02-04T11:39:41;6.60;99.90
16732;DHT22;8484;50.904;9.192;2023-02-04T11:42:18;7.20;99.90
16732;DHT22;8484;50.904;9.192;2023-02-04T11:44:50;7.20;99.90
16732;DHT22;8484;50.904;9.192;2023-02-04T11:47:17;7.00;99.90
16732;DHT22;8484;50.904;9.192;2023-02-04T11:49:47;7.20;99.90
16732;DHT22;8484;50.904;9.192;2023-02-04T11:52:18;7.50;99.90
16732;DHT22;8484;50.904;9.192;2023-02-04T11:54:53;7.90;99.90
16732;DHT22;8484;50.904;9.192;2023-02-04T11:57:20;7.30;99.90
16732;DHT22;8484;50.904;9.192;2023-02-04T11:59:47;7.50;99.90
16732;DHT22;8484;50.904;9.192;2023-02-04T12:02:15;7.60;99.90
16732;DHT22;8484;50.904;9.192;2023-02-04T12:04:50;7.30;99.90
16732;DHT22;8484;50.904;9.192;2023-02-04T12:07:23;7.00;99.90
16732;DHT22;8484;50.904;9.192;2023-02-04T12:09:50;6.70;99.90
16732;DHT22;8484;50.904;9.192;2023-02-04T12:12:29;6.90;99.90
16732;DHT22;8484;50.904;9.192;2023-02-04T12:14:58;6.80;99.90
16732;DHT22;8484;50.904;9.192;2023-02-04T12:17:26;6.80;99.90
16732;DHT22;8484;50.904;9.192;2023-02-04T12:19:53;7.10;99.90
16732;DHT22;8484;50.904;9.192;2023-02-04T12:22:20;7.40;99.90
16732;DHT22;8484;50.904;9.192;2023-02-04T12:24:47;7.30;99.90
16732;DHT22;8484;50.904;9.192;2023-02-04T12:27:14;7.20;99.90
16732;DHT22;8484;50.904;9.192;2023-02-04T12:29:42;7.00;99.90
16732;DHT22;8484;50.904;9.192;2023-02-04T12:32:08;7.20;99.90
16732;DHT22;8484;50.904;9.192;2023-02-04T12:34:35;7.20;99.90
16732;DHT22;8484;50.904;9.192;2023-02-04T12:37:02;6.80;99.90
16732;DHT22;8484;50.904;9.192;2023-02-04T12:39:29;6.90;99.90
16732;DHT22;8484;50.904;9.192;2023-02-04T12:41:56;6.80;99.90
16732;DHT22;8484;50.904;9.192;2023-02-04T12:44:23;6.80;99.90
16732;DHT22;8484;50.904;9.192;2023-02-04T12:46:51;6.80;99.90
16732;DHT22;8484;50.904;9.192;2023-02-04T12:49:19;6.70;99.90
16732;DHT22;8484;50.904;9.192;2023-02-04T12:51:49;6.30;99.90
16732;DHT22;8484;50.904;9.192;2023-02-04T12:54:15;6.20;99.90
16732;DHT22;8484;50.904;9.192;2023-02-04T12:56:43;6.10;99.90
16732;DHT22;8484;50.904;9.192;2023-02-04T12:59:09;5.90;99.90
16732;DHT22;8484;50.904;9.192;2023-02-04T13:01:36;5.90;99.90
16732;DHT22;8484;50.904;9.192;2023-02-04T13:04:05;6.40;99.90
16732;DHT22;8484;50.904;9.192;2023-02-04T13:06:31;6.50;99.90
16732;DHT22;8484;50.904;9.192;2023-02-04T13:08:58;6.40;99.90
16732;DHT22;8484;50.904;9.192;2023-02-04T13:11:25;6.30;99.90
16732;DHT22;8484;50.904;9.192;2023-02-04T13:13:51;6.20;99.90
16732;DHT22;8484;50.904;9.192;2023-02-04T13:16:18;6.30;99.90
16732;DHT22;8484;50.904;9.192;2023-02-04T13:18:47;6.60;99.90
16732;DHT22;8484;50.904;9.192;2023-02-04T13:21:15;6.20;99.90
16732;DHT22;8484;50.904;9.192;2023-02-04T13:23:42;6.20;99.90
16732;DHT22;8484;50.904;9.192;2023-02-04T13:26:09;6.00;99.90
16732;DHT22;8484;50.904;9.192;2023-02-04T13:28:36;5.90;99.90
16732;DHT22;8484;50.904;9.192;2023-02-04T13:31:03;5.90;99.90
16732;DHT22;8484;50.904;9.192;2023-02-04T13:33:30;5.80;99.90
16732;DHT22;8484;50.904;9.192;2023-02-04T13:35:57;5.50;99.90
16732;DHT22;8484;50.904;9.192;2023-02-04T13:38:25;5.30;99.90
16732;DHT22;8484;50.904;9.192;2023-02-04T13:40:52;5.30;99.90
16732;DHT22;8484;50.904;9.192;2023-02-04T13:43:19;5.30;99.90
16732;DHT22;8484;50.904;9.192;2023-02-04T13:45:46;5.30;99.90
16732;DHT22;8484;50.904;9.192;2023-02-04T13:48:13;5.30;99.90
16732;DHT22;8484;50.904;9.192;2023-02-04T13:50:41;5.30;99.90
16732;DHT22;8484;50.904;9.192;2023-02-04T13:53:08;5.40;99.90
16732;DHT22;8484;50.904;9.192;2023-02-04T13:55:36;5.50;99.90
16732;DHT22;8484;50.904;9.192;2023-02-04T13:58:03;5.30;99.90
16732;DHT22;8484;50.904;9.192;2023-02-04T14:00:30;5.20;99.90
16732;DHT22;8484;50.904;9.192;2023-02-04T14:02:56;5.40;99.90
16732;DHT22;8484;50.904;9.192;2023-02-04T14:05:23;5.40;99.90
16732;DHT22;8484;50.904;9.192;2023-02-04T14:07:50;5.10;99.90
16732;DHT22;8484;50.904;9.192;2023-02-04T14:10:17;5.00;99.90
16732;DHT22;8484;50.904;9.192;2023-02-04T14:12:47;5.00;99.90
16732;DHT22;8484;50.904;9.192;2023-02-04T14:15:14;4.90;99.90
16732;DHT22;8484;50.904;9.192;2023-02-04T14:17:41;4.80;99.90
16732;DHT22;8484;50.904;9.192;2023-02-04T14:20:09;4.70;99.90
16732;DHT22;8484;50.904;9.192;2023-02-04T14:22:36;4.70;99.90
16732;DHT22;8484;50.904;9.192;2023-02-04T14:25:03;4.70;99.90
16732;DHT22;8484;50.904;9.192;2023-02-04T14:27:30;4.80;99.90
16732;DHT22;8484;50.904;9.192;2023-02-04T14:29:58;5.10;99.90
16732;DHT22;8484;50.904;9.192;2023-02-04T14:32:25;5.10;99.90
16732;DHT22;8484;50.904;9.192;2023-02-04T14:34:52;5.00;99.90
16732;DHT22;8484;50.904;9.192;2023-02-04T14:37:19;5.00;99.90
16732;DHT22;8484;50.904;9.192;2023-02-04T14:39:45;4.90;99.90
16732;DHT22;8484;50.904;9.192;2023-02-04T14:42:12;4.90;99.90
16732;DHT22;8484;50.904;9.192;2023-02-04T14:44:39;4.90;99.90
16732;DHT22;8484;50.904;9.192;2023-02-04T14:47:07;4.80;99.90
16732;DHT22;8484;50.904;9.192;2023-02-04T14:49:36;4.80;99.90
16732;DHT22;8484;50.904;9.192;2023-02-04T14:52:03;4.60;99.90
16732;DHT22;8484;50.904;9.192;2023-02-04T14:54:29;4.50;99.90
16732;DHT22;8484;50.904;9.192;2023-02-04T14:56:56;4.40;99.90
16732;DHT22;8484;50.904;9.192;2023-02-04T14:59:23;4.30;99.90
16732;DHT22;8484;50.904;9.192;2023-02-04T15:01:50;4.40;99.90
16732;DHT22;8484;50.904;9.192;2023-02-04T15:04:18;4.40;99.90
16732;DHT22;8484;50.904;9.192;2023-02-04T15:06:45;4.40;99.90
16732;DHT22;8484;50.904;9.192;2023-02-04T15:09:12;4.40;99.90
16732;DHT22;8484;50.904;9.192;2023-02-04T15:11:39;4.50;99.90
16732;DHT22;8484;50.904;9.192;2023-02-04T15:14:06;4.50;99.90
16732;DHT22;8484;50.904;9.192;2023-02-04T15:16:33;4.60;99.90
16732;DHT22;8484;50.904;9.192;2023-02-04T15:18:59;4.50;99.90
16732;DHT22;8484;50.904;9.192;2023-02-04T15:21:28;4.50;99.90
16732;DHT22;8484;50.904;9.192;2023-02-04T15:23:54;4.50;99.90
16732;DHT22;8484;50.904;9.192;2023-02-04T15:26:21;4.40;99.90
16732;DHT22;8484;50.904;9.192;2023-02-04T15:28:49;4.30;99.90
16732;DHT22;8484;50.904;9.192;2023-02-04T15:31:16;4.30;99.90
16732;DHT22;8484;50.904;9.192;2023-02-04T15:33:43;4.30;99.90
16732;DHT22;8484;50.904;9.192;2023-02-04T15:36:10;4.40;99.90
16732;DHT22;8484;50.904;9.192;2023-02-04T15:38:38;4.40;99.90
16732;DHT22;8484;50.904;9.192;2023-02-04T15:41:05;4.50;99.90
16732;DHT22;8484;50.904;9.192;2023-02-04T15:43:31;4.50;99.90
16732;DHT22;8484;50.904;9.192;2023-02-04T15:45:58;4.50;99.90
16732;DHT22;8484;50.904;9.192;2023-02-04T15:48:25;4.60;99.90
16732;DHT22;8484;50.904;9.192;2023-02-04T15:50:53;4.60;99.90
16732;DHT22;8484;50.904;9.192;2023-02-04T15:53:19;4.70;99.90
16732;DHT22;8484;50.904;9.192;2023-02-04T15:55:48;4.70;99.90
16732;DHT22;8484;50.904;9.192;2023-02-04T15:58:15;4.60;99.90
16732;DHT22;8484;50.904;9.192;2023-02-04T16:00:42;4.50;99.90
16732;DHT22;8484;50.904;9.192;2023-02-04T16:03:10;4.50;99.90
16732;DHT22;8484;50.904;9.192;2023-02-04T16:05:36;4.50;99.90